Bodinumu Airport

METAR YHID TAF YHID
27 °C
°C
-
°C
27m
Alter
13:26:43
LT
12:26
UTC
0 ft

2.000

4.000

6.000

8.000

10.000

SCT 2.500
BKN 5.000
OVC 6.500
VFR
<?= Yii::t('app', 'Wind direction') ?> <?= Yii::t('app', 'of'); ?>
190°
06:26
Sonne auf
94%
Luftfeuchtigkeit
Windscherung
Geschlossen/Schnee
RWY-Sichtweite
RWY Zustand
Vert. Sichtweite
Min. Sichtbarkeit
CAVOK
Trend
Korrektur
Besonderer Bericht
1008 hPa
QNH
METAR YHID 301200Z AUTO 19005KT 9999 // SCT025 BKN050 OVC065 27/26 Q1008
Himmel bedeckt
0 kt
0 kt
22:00
IFR
5 kt
23:00
IFR
5 kt
00:00
IFR
5 kt
01:00
IFR
5 kt
02:00
IFR
5 kt
03:00
IFR
5 kt
04:00
IFR
5 kt
10 km+
Sichtweite
5.000 ft
Wolkendecke
5 kt
Wind
metar-taf.com/BNM

Metar-Taf.com

Visueller Decoder

Wir und Dritte verfolgen dein Internetverhalten auf unserer Website mit Cookies. Wenn du fortfährst, gehen wir davon aus, dass du mit unserer Cookie-Richtlinie einverstanden bist.